Terminal Aerodrome Forecast
Issued by NWS

Current Version | Previous Version | Text Only | Print | Product List | Glossary On
Versions: 1 2 3 4 5 6 7 8 9 10 11 12 13 14 15 16 17 18 19 20 21 22 23 24 25 26 27 28 29 30 31 32
000
FTAK31 PANC 251732
TAFAAQ
TAF
PAAQ 251732Z 2518/2618 VRB05KT P6SM VCSH BKN070 OVC100
     FM252100 16010KT P6SM VCSH BKN050 BKN100
     FM260400 17006KT P6SM SCT050 BKN100
     FM261200 35005KT P6SM SCT035 BKN100=

USA.gov is the U.S. government's official web portal to all federal, state and local government web resources and services.